sensor_id;sensor_type;location;lat;lon;timestamp;temperature;humidity
43647;DHT22;56152;49.996;18.980;2023-07-24T00:04:01;22.50;62.50
43647;DHT22;56152;49.996;18.980;2023-07-24T00:09:17;22.50;62.90
43647;DHT22;56152;49.996;18.980;2023-07-24T00:14:25;22.50;63.20
43647;DHT22;56152;49.996;18.980;2023-07-24T00:19:51;22.60;63.40
43647;DHT22;56152;49.996;18.980;2023-07-24T00:24:59;22.70;63.60
43647;DHT22;56152;49.996;18.980;2023-07-24T00:30:04;22.60;63.80
43647;DHT22;56152;49.996;18.980;2023-07-24T00:41:06;22.60;64.80
43647;DHT22;56152;49.996;18.980;2023-07-24T00:51:36;22.60;65.50
43647;DHT22;56152;49.996;18.980;2023-07-24T00:56:43;22.60;66.10
43647;DHT22;56152;49.996;18.980;2023-07-24T01:01:46;22.50;66.60
43647;DHT22;56152;49.996;18.980;2023-07-24T01:06:50;22.50;67.20
43647;DHT22;56152;49.996;18.980;2023-07-24T01:12:00;22.50;67.70
43647;DHT22;56152;49.996;18.980;2023-07-24T01:17:07;22.40;68.00
43647;DHT22;56152;49.996;18.980;2023-07-24T01:22:15;22.50;68.50
43647;DHT22;56152;49.996;18.980;2023-07-24T01:27:34;22.40;68.90
43647;DHT22;56152;49.996;18.980;2023-07-24T01:32:36;22.40;69.20
43647;DHT22;56152;49.996;18.980;2023-07-24T01:37:56;22.30;69.70
43647;DHT22;56152;49.996;18.980;2023-07-24T01:43:01;22.30;70.00
43647;DHT22;56152;49.996;18.980;2023-07-24T01:48:14;22.10;69.40
43647;DHT22;56152;49.996;18.980;2023-07-24T01:53:16;22.00;70.40
43647;DHT22;56152;49.996;18.980;2023-07-24T01:58:21;21.90;71.00
43647;DHT22;56152;49.996;18.980;2023-07-24T02:09:24;21.80;71.90
43647;DHT22;56152;49.996;18.980;2023-07-24T02:14:31;21.70;72.60
43647;DHT22;56152;49.996;18.980;2023-07-24T02:25:10;21.40;73.40
43647;DHT22;56152;49.996;18.980;2023-07-24T02:30:16;21.30;73.80
43647;DHT22;56152;49.996;18.980;2023-07-24T02:35:18;21.20;74.40
43647;DHT22;56152;49.996;18.980;2023-07-24T02:40:31;21.10;74.90
43647;DHT22;56152;49.996;18.980;2023-07-24T02:45:36;21.00;75.40
43647;DHT22;56152;49.996;18.980;2023-07-24T02:50:38;20.90;76.20
43647;DHT22;56152;49.996;18.980;2023-07-24T02:55:42;20.70;76.60
43647;DHT22;56152;49.996;18.980;2023-07-24T03:00:47;20.60;77.20
43647;DHT22;56152;49.996;18.980;2023-07-24T03:06:04;20.50;77.60
43647;DHT22;56152;49.996;18.980;2023-07-24T03:11:11;20.40;77.80
43647;DHT22;56152;49.996;18.980;2023-07-24T03:16:25;20.30;78.50
43647;DHT22;56152;49.996;18.980;2023-07-24T03:21:27;20.20;78.50
43647;DHT22;56152;49.996;18.980;2023-07-24T03:26:29;20.20;79.10
43647;DHT22;56152;49.996;18.980;2023-07-24T03:31:47;20.20;79.50
43647;DHT22;56152;49.996;18.980;2023-07-24T03:36:52;20.10;79.50
43647;DHT22;56152;49.996;18.980;2023-07-24T03:41:58;20.10;79.90
43647;DHT22;56152;49.996;18.980;2023-07-24T03:47:03;20.10;80.30
43647;DHT22;56152;49.996;18.980;2023-07-24T03:52:07;20.20;80.70
43647;DHT22;56152;49.996;18.980;2023-07-24T03:57:10;20.30;81.00
43647;DHT22;56152;49.996;18.980;2023-07-24T04:02:14;20.40;81.10
43647;DHT22;56152;49.996;18.980;2023-07-24T04:07:16;20.40;81.50
43647;DHT22;56152;49.996;18.980;2023-07-24T04:12:25;20.40;81.60
43647;DHT22;56152;49.996;18.980;2023-07-24T04:23:07;20.70;81.90
43647;DHT22;56152;49.996;18.980;2023-07-24T04:28:33;20.90;82.00
43647;DHT22;56152;49.996;18.980;2023-07-24T04:33:35;21.20;81.60
43647;DHT22;56152;49.996;18.980;2023-07-24T04:38:43;21.40;81.30
43647;DHT22;56152;49.996;18.980;2023-07-24T04:43:46;21.70;81.20
43647;DHT22;56152;49.996;18.980;2023-07-24T04:48:59;21.80;80.80
43647;DHT22;56152;49.996;18.980;2023-07-24T04:54:07;22.10;80.60
43647;DHT22;56152;49.996;18.980;2023-07-24T04:59:09;22.40;80.10
43647;DHT22;56152;49.996;18.980;2023-07-24T05:04:12;22.60;79.50
43647;DHT22;56152;49.996;18.980;2023-07-24T05:09:16;22.80;79.20
43647;DHT22;56152;49.996;18.980;2023-07-24T05:14:45;23.00;79.20
43647;DHT22;56152;49.996;18.980;2023-07-24T05:19:47;23.10;78.90
43647;DHT22;56152;49.996;18.980;2023-07-24T05:24:57;23.20;78.70
43647;DHT22;56152;49.996;18.980;2023-07-24T05:29:59;23.40;78.40
43647;DHT22;56152;49.996;18.980;2023-07-24T05:35:19;23.50;78.20
43647;DHT22;56152;49.996;18.980;2023-07-24T05:40:23;23.70;77.90
43647;DHT22;56152;49.996;18.980;2023-07-24T05:45:35;24.20;77.20
43647;DHT22;56152;49.996;18.980;2023-07-24T05:50:37;24.70;76.10
43647;DHT22;56152;49.996;18.980;2023-07-24T05:56:00;24.90;75.10
43647;DHT22;56152;49.996;18.980;2023-07-24T06:01:03;25.10;74.30
43647;DHT22;56152;49.996;18.980;2023-07-24T06:06:24;25.10;74.50
43647;DHT22;56152;49.996;18.980;2023-07-24T06:11:28;25.50;73.70
43647;DHT22;56152;49.996;18.980;2023-07-24T06:22:06;26.30;71.10
43647;DHT22;56152;49.996;18.980;2023-07-24T06:27:14;26.50;70.40
43647;DHT22;56152;49.996;18.980;2023-07-24T06:32:18;26.70;69.50
43647;DHT22;56152;49.996;18.980;2023-07-24T06:37:28;27.00;69.40
43647;DHT22;56152;49.996;18.980;2023-07-24T06:42:32;27.10;68.10
43647;DHT22;56152;49.996;18.980;2023-07-24T06:47:34;27.20;67.50
43647;DHT22;56152;49.996;18.980;2023-07-24T06:52:36;27.10;66.60
43647;DHT22;56152;49.996;18.980;2023-07-24T06:57:51;27.30;66.30
43647;DHT22;56152;49.996;18.980;2023-07-24T07:02:58;27.60;66.40
43647;DHT22;56152;49.996;18.980;2023-07-24T07:08:07;28.00;64.70
43647;DHT22;56152;49.996;18.980;2023-07-24T07:13:17;28.30;64.30
43647;DHT22;56152;49.996;18.980;2023-07-24T07:24:33;28.90;62.00
43647;DHT22;56152;49.996;18.980;2023-07-24T07:29:47;28.80;61.50
43647;DHT22;56152;49.996;18.980;2023-07-24T07:34:49;29.20;60.90
43647;DHT22;56152;49.996;18.980;2023-07-24T07:40:00;29.10;59.50
43647;DHT22;56152;49.996;18.980;2023-07-24T07:45:06;28.70;60.30
43647;DHT22;56152;49.996;18.980;2023-07-24T07:50:09;28.70;59.80
43647;DHT22;56152;49.996;18.980;2023-07-24T07:55:28;28.80;59.80
43647;DHT22;56152;49.996;18.980;2023-07-24T08:00:31;29.30;59.60
43647;DHT22;56152;49.996;18.980;2023-07-24T08:05:33;29.50;58.50
43647;DHT22;56152;49.996;18.980;2023-07-24T08:10:40;29.20;58.70
43647;DHT22;56152;49.996;18.980;2023-07-24T08:15:43;29.10;58.50
43647;DHT22;56152;49.996;18.980;2023-07-24T08:20:47;28.90;58.40
43647;DHT22;56152;49.996;18.980;2023-07-24T08:25:52;28.90;58.30
43647;DHT22;56152;49.996;18.980;2023-07-24T08:30:59;28.80;58.30
43647;DHT22;56152;49.996;18.980;2023-07-24T08:36:15;28.90;57.60
43647;DHT22;56152;49.996;18.980;2023-07-24T08:41:17;28.70;56.80
43647;DHT22;56152;49.996;18.980;2023-07-24T08:46:56;28.20;56.10
43647;DHT22;56152;49.996;18.980;2023-07-24T08:51:58;27.80;57.10
43647;DHT22;56152;49.996;18.980;2023-07-24T08:57:05;27.40;56.70
43647;DHT22;56152;49.996;18.980;2023-07-24T09:02:09;27.00;56.50
43647;DHT22;56152;49.996;18.980;2023-07-24T09:07:35;26.70;56.30
43647;DHT22;56152;49.996;18.980;2023-07-24T09:12:46;26.40;57.40
43647;DHT22;56152;49.996;18.980;2023-07-24T09:23:39;25.70;59.50
43647;DHT22;56152;49.996;18.980;2023-07-24T09:29:07;25.50;61.10
43647;DHT22;56152;49.996;18.980;2023-07-24T09:34:16;25.50;60.80
43647;DHT22;56152;49.996;18.980;2023-07-24T09:39:24;25.50;61.20
43647;DHT22;56152;49.996;18.980;2023-07-24T09:44:40;25.60;61.80
43647;DHT22;56152;49.996;18.980;2023-07-24T09:49:43;26.60;61.60
43647;DHT22;56152;49.996;18.980;2023-07-24T10:00:45;28.30;56.80
43647;DHT22;56152;49.996;18.980;2023-07-24T10:05:48;28.10;56.60
43647;DHT22;56152;49.996;18.980;2023-07-24T10:11:04;27.80;56.80
43647;DHT22;56152;49.996;18.980;2023-07-24T10:16:10;27.60;56.90
43647;DHT22;56152;49.996;18.980;2023-07-24T10:21:13;27.50;56.80
43647;DHT22;56152;49.996;18.980;2023-07-24T10:26:23;27.20;57.00
43647;DHT22;56152;49.996;18.980;2023-07-24T10:31:28;27.00;57.60
43647;DHT22;56152;49.996;18.980;2023-07-24T10:37:01;26.90;57.50
43647;DHT22;56152;49.996;18.980;2023-07-24T10:42:06;26.60;57.90
43647;DHT22;56152;49.996;18.980;2023-07-24T10:47:11;26.40;58.80
43647;DHT22;56152;49.996;18.980;2023-07-24T10:52:15;26.40;59.30
43647;DHT22;56152;49.996;18.980;2023-07-24T10:57:28;26.50;59.40
43647;DHT22;56152;49.996;18.980;2023-07-24T11:02:35;26.40;59.00
43647;DHT22;56152;49.996;18.980;2023-07-24T11:08:12;26.40;59.30
43647;DHT22;56152;49.996;18.980;2023-07-24T11:13:15;26.60;59.40
43647;DHT22;56152;49.996;18.980;2023-07-24T11:18:19;27.00;58.90
43647;DHT22;56152;49.996;18.980;2023-07-24T11:23:23;27.50;58.50
43647;DHT22;56152;49.996;18.980;2023-07-24T11:28:39;27.70;57.50
43647;DHT22;56152;49.996;18.980;2023-07-24T11:33:44;28.10;56.70
43647;DHT22;56152;49.996;18.980;2023-07-24T11:38:49;28.40;56.60
43647;DHT22;56152;49.996;18.980;2023-07-24T11:43:54;28.90;55.20
43647;DHT22;56152;49.996;18.980;2023-07-24T11:48:58;29.00;55.50
43647;DHT22;56152;49.996;18.980;2023-07-24T11:54:25;29.40;54.70
43647;DHT22;56152;49.996;18.980;2023-07-24T11:59:28;29.80;54.50
43647;DHT22;56152;49.996;18.980;2023-07-24T12:04:56;30.00;53.10
43647;DHT22;56152;49.996;18.980;2023-07-24T12:10:07;30.20;53.20
43647;DHT22;56152;49.996;18.980;2023-07-24T12:15:13;30.50;52.60
43647;DHT22;56152;49.996;18.980;2023-07-24T12:20:26;30.70;51.50
43647;DHT22;56152;49.996;18.980;2023-07-24T12:25:30;30.70;51.80
43647;DHT22;56152;49.996;18.980;2023-07-24T12:30:51;30.80;51.20
43647;DHT22;56152;49.996;18.980;2023-07-24T12:35:55;30.90;51.50
43647;DHT22;56152;49.996;18.980;2023-07-24T12:41:31;30.90;50.70
43647;DHT22;56152;49.996;18.980;2023-07-24T12:46:33;30.70;51.10
43647;DHT22;56152;49.996;18.980;2023-07-24T12:52:04;30.60;51.70
43647;DHT22;56152;49.996;18.980;2023-07-24T12:57:07;30.60;51.20
43647;DHT22;56152;49.996;18.980;2023-07-24T13:02:26;30.60;51.30
43647;DHT22;56152;49.996;18.980;2023-07-24T13:07:30;30.70;51.20
43647;DHT22;56152;49.996;18.980;2023-07-24T13:12:44;30.80;50.90
43647;DHT22;56152;49.996;18.980;2023-07-24T13:24:05;30.90;51.10
43647;DHT22;56152;49.996;18.980;2023-07-24T13:29:08;31.00;51.10
43647;DHT22;56152;49.996;18.980;2023-07-24T13:34:27;30.70;50.70
43647;DHT22;56152;49.996;18.980;2023-07-24T13:39:30;30.60;51.30
43647;DHT22;56152;49.996;18.980;2023-07-24T13:45:06;30.50;51.30
43647;DHT22;56152;49.996;18.980;2023-07-24T13:50:12;30.50;51.30
43647;DHT22;56152;49.996;18.980;2023-07-24T13:55:34;30.80;51.00
43647;DHT22;56152;49.996;18.980;2023-07-24T14:00:40;31.10;50.90
43647;DHT22;56152;49.996;18.980;2023-07-24T14:05:51;31.30;50.40
43647;DHT22;56152;49.996;18.980;2023-07-24T14:11:04;31.30;50.30
43647;DHT22;56152;49.996;18.980;2023-07-24T14:16:07;31.10;50.30
43647;DHT22;56152;49.996;18.980;2023-07-24T14:21:09;30.80;50.70
43647;DHT22;56152;49.996;18.980;2023-07-24T14:26:25;30.60;51.30
43647;DHT22;56152;49.996;18.980;2023-07-24T14:31:40;30.50;51.40
43647;DHT22;56152;49.996;18.980;2023-07-24T14:36:42;30.30;51.50
43647;DHT22;56152;49.996;18.980;2023-07-24T14:41:51;30.10;51.60
43647;DHT22;56152;49.996;18.980;2023-07-24T14:46:52;29.90;51.90
43647;DHT22;56152;49.996;18.980;2023-07-24T14:52:06;29.80;52.50
43647;DHT22;56152;49.996;18.980;2023-07-24T14:57:10;29.70;52.70
43647;DHT22;56152;49.996;18.980;2023-07-24T15:02:22;29.70;53.10
43647;DHT22;56152;49.996;18.980;2023-07-24T15:07:24;29.90;53.00
43647;DHT22;56152;49.996;18.980;2023-07-24T15:12:38;29.80;52.80
43647;DHT22;56152;49.996;18.980;2023-07-24T15:17:40;29.60;53.60
43647;DHT22;56152;49.996;18.980;2023-07-24T15:23:17;29.50;53.80
43647;DHT22;56152;49.996;18.980;2023-07-24T15:28:21;29.20;54.60
43647;DHT22;56152;49.996;18.980;2023-07-24T15:33:37;29.00;55.70
43647;DHT22;56152;49.996;18.980;2023-07-24T15:38:48;28.80;56.90
43647;DHT22;56152;49.996;18.980;2023-07-24T15:43:52;28.50;57.60
43647;DHT22;56152;49.996;18.980;2023-07-24T15:49:28;28.30;59.20
43647;DHT22;56152;49.996;18.980;2023-07-24T15:54:31;28.10;58.90
43647;DHT22;56152;49.996;18.980;2023-07-24T15:59:44;27.70;58.50
43647;DHT22;56152;49.996;18.980;2023-07-24T16:04:46;27.10;58.70
43647;DHT22;56152;49.996;18.980;2023-07-24T16:10:03;26.50;60.60
43647;DHT22;56152;49.996;18.980;2023-07-24T16:15:10;26.10;60.80
43647;DHT22;56152;49.996;18.980;2023-07-24T16:20:16;25.70;61.90
43647;DHT22;56152;49.996;18.980;2023-07-24T16:25:19;25.50;63.70
43647;DHT22;56152;49.996;18.980;2023-07-24T16:30:46;25.10;65.70
43647;DHT22;56152;49.996;18.980;2023-07-24T16:35:52;24.50;67.10
43647;DHT22;56152;49.996;18.980;2023-07-24T16:41:16;23.90;70.00
43647;DHT22;56152;49.996;18.980;2023-07-24T16:46:22;23.10;70.60
43647;DHT22;56152;49.996;18.980;2023-07-24T16:51:24;22.30;73.60
43647;DHT22;56152;49.996;18.980;2023-07-24T16:56:59;21.80;75.60
43647;DHT22;56152;49.996;18.980;2023-07-24T17:02:03;21.50;76.90
43647;DHT22;56152;49.996;18.980;2023-07-24T17:12:47;21.10;79.30
43647;DHT22;56152;49.996;18.980;2023-07-24T17:17:50;21.10;80.40
43647;DHT22;56152;49.996;18.980;2023-07-24T17:23:01;21.10;81.20
43647;DHT22;56152;49.996;18.980;2023-07-24T17:28:22;21.20;81.70
43647;DHT22;56152;49.996;18.980;2023-07-24T17:33:26;21.10;81.50
43647;DHT22;56152;49.996;18.980;2023-07-24T17:38:29;20.90;83.40
43647;DHT22;56152;49.996;18.980;2023-07-24T17:49:35;20.40;84.90
43647;DHT22;56152;49.996;18.980;2023-07-24T17:54:38;20.10;86.70
43647;DHT22;56152;49.996;18.980;2023-07-24T17:59:42;19.90;87.70
43647;DHT22;56152;49.996;18.980;2023-07-24T18:05:07;19.80;88.70
43647;DHT22;56152;49.996;18.980;2023-07-24T18:10:10;19.80;88.90
43647;DHT22;56152;49.996;18.980;2023-07-24T18:15:12;19.90;89.30
43647;DHT22;56152;49.996;18.980;2023-07-24T18:20:21;19.90;89.80
43647;DHT22;56152;49.996;18.980;2023-07-24T18:25:25;19.90;89.90
43647;DHT22;56152;49.996;18.980;2023-07-24T18:30:28;19.90;89.90
43647;DHT22;56152;49.996;18.980;2023-07-24T18:35:38;19.90;90.00
43647;DHT22;56152;49.996;18.980;2023-07-24T18:40:43;19.90;90.20
43647;DHT22;56152;49.996;18.980;2023-07-24T18:45:45;19.90;90.30
43647;DHT22;56152;49.996;18.980;2023-07-24T18:51:01;19.90;90.50
43647;DHT22;56152;49.996;18.980;2023-07-24T18:56:03;19.90;90.50
43647;DHT22;56152;49.996;18.980;2023-07-24T19:01:16;19.80;90.60
43647;DHT22;56152;49.996;18.980;2023-07-24T19:06:24;19.60;91.00
43647;DHT22;56152;49.996;18.980;2023-07-24T19:11:26;19.60;91.20
43647;DHT22;56152;49.996;18.980;2023-07-24T19:16:37;19.60;91.40
43647;DHT22;56152;49.996;18.980;2023-07-24T19:28:09;19.50;91.60
43647;DHT22;56152;49.996;18.980;2023-07-24T19:33:10;19.60;91.90
43647;DHT22;56152;49.996;18.980;2023-07-24T19:38:25;19.60;92.00
43647;DHT22;56152;49.996;18.980;2023-07-24T19:43:29;19.60;92.10
43647;DHT22;56152;49.996;18.980;2023-07-24T19:49:04;19.50;92.20
43647;DHT22;56152;49.996;18.980;2023-07-24T19:54:07;19.50;92.10
43647;DHT22;56152;49.996;18.980;2023-07-24T19:59:30;19.40;92.20
43647;DHT22;56152;49.996;18.980;2023-07-24T20:04:39;19.40;92.10
43647;DHT22;56152;49.996;18.980;2023-07-24T20:09:41;19.20;92.30
43647;DHT22;56152;49.996;18.980;2023-07-24T20:14:45;19.20;92.30
43647;DHT22;56152;49.996;18.980;2023-07-24T20:19:51;19.10;92.50
43647;DHT22;56152;49.996;18.980;2023-07-24T20:25:19;19.10;92.50
43647;DHT22;56152;49.996;18.980;2023-07-24T20:30:24;19.00;92.50
43647;DHT22;56152;49.996;18.980;2023-07-24T20:35:27;19.00;92.70
43647;DHT22;56152;49.996;18.980;2023-07-24T20:40:30;18.90;92.70
43647;DHT22;56152;49.996;18.980;2023-07-24T20:45:44;18.90;92.80
43647;DHT22;56152;49.996;18.980;2023-07-24T20:50:46;18.80;92.80
43647;DHT22;56152;49.996;18.980;2023-07-24T20:56:04;18.70;92.90
43647;DHT22;56152;49.996;18.980;2023-07-24T21:01:08;18.70;92.90
43647;DHT22;56152;49.996;18.980;2023-07-24T21:06:10;18.70;93.10
43647;DHT22;56152;49.996;18.980;2023-07-24T21:11:12;18.70;93.10
43647;DHT22;56152;49.996;18.980;2023-07-24T21:16:16;18.60;93.20
43647;DHT22;56152;49.996;18.980;2023-07-24T21:21:18;18.60;93.30
43647;DHT22;56152;49.996;18.980;2023-07-24T21:26:37;18.50;93.20
43647;DHT22;56152;49.996;18.980;2023-07-24T21:31:41;18.40;93.30
43647;DHT22;56152;49.996;18.980;2023-07-24T21:37:02;18.40;92.50
43647;DHT22;56152;49.996;18.980;2023-07-24T21:42:06;18.30;93.00
43647;DHT22;56152;49.996;18.980;2023-07-24T21:47:12;18.30;93.20
43647;DHT22;56152;49.996;18.980;2023-07-24T21:52:14;18.20;93.30
43647;DHT22;56152;49.996;18.980;2023-07-24T21:57:39;18.10;93.50
43647;DHT22;56152;49.996;18.980;2023-07-24T22:02:43;18.10;93.50
43647;DHT22;56152;49.996;18.980;2023-07-24T22:08:21;18.00;93.70
43647;DHT22;56152;49.996;18.980;2023-07-24T22:13:23;18.00;93.70
43647;DHT22;56152;49.996;18.980;2023-07-24T22:18:27;17.90;93.80
43647;DHT22;56152;49.996;18.980;2023-07-24T22:23:29;17.80;93.80
43647;DHT22;56152;49.996;18.980;2023-07-24T22:28:31;17.80;93.80
43647;DHT22;56152;49.996;18.980;2023-07-24T22:33:35;17.80;93.80
43647;DHT22;56152;49.996;18.980;2023-07-24T22:38:46;17.90;93.90
43647;DHT22;56152;49.996;18.980;2023-07-24T22:43:49;17.70;93.90
43647;DHT22;56152;49.996;18.980;2023-07-24T22:48:53;17.60;94.10
43647;DHT22;56152;49.996;18.980;2023-07-24T22:54:07;17.60;94.30
43647;DHT22;56152;49.996;18.980;2023-07-24T22:59:21;17.50;94.20
43647;DHT22;56152;49.996;18.980;2023-07-24T23:04:25;17.40;94.30
43647;DHT22;56152;49.996;18.980;2023-07-24T23:15:14;17.40;94.20
43647;DHT22;56152;49.996;18.980;2023-07-24T23:20:18;17.40;94.30
43647;DHT22;56152;49.996;18.980;2023-07-24T23:25:42;17.40;94.30
43647;DHT22;56152;49.996;18.980;2023-07-24T23:30:47;17.40;94.40
43647;DHT22;56152;49.996;18.980;2023-07-24T23:35:54;17.40;94.40
43647;DHT22;56152;49.996;18.980;2023-07-24T23:41:04;17.40;94.50
43647;DHT22;56152;49.996;18.980;2023-07-24T23:46:13;17.40;94.50
43647;DHT22;56152;49.996;18.980;2023-07-24T23:51:17;17.40;94.50
43647;DHT22;56152;49.996;18.980;2023-07-24T23:56:20;17.50;94.50
